Overton's Hourly Summary for Thursday, April 20, 2017
Hour Temp
(f)
RH
(%)
Solar Rad.
(MJ/m2)
Rainfall
(in)
Wind
(mph)
4/20/2017 12:00 AM 69 92 0 0 2.08
4/20/2017 1:00 AM 69 93 0 0 5.18
4/20/2017 2:00 AM 68 94 0 0 5.38
4/20/2017 3:00 AM 68 93 0 0 6.81
4/20/2017 4:00 AM 68 94 0 0 5.48
4/20/2017 5:00 AM 67 94 0 0 2.63
4/20/2017 6:00 AM 67 95 0 0 1.53
4/20/2017 7:00 AM 66 97 0.01 0 0.39
4/20/2017 8:00 AM 68 94 0.17 0 0.75
4/20/2017 9:00 AM 70 91 0.58 0 4.46
4/20/2017 10:00 AM 71 85 0.76 0 4.47
4/20/2017 11:00 AM 74 74 1.46 0 5.09
4/20/2017 12:00 PM 77 70 2.04 0 7.8
4/20/2017 1:00 PM 78 68 1.85 0 5.3
4/20/2017 2:00 PM 81 60 2.78 0 4.45
4/20/2017 3:00 PM 82 64 2.61 0 4.83
4/20/2017 4:00 PM 80 67 1.45 0 7.98
4/20/2017 5:00 PM 81 63 1.42 0 5.36
4/20/2017 6:00 PM 82 64 1.3 0 5.03
4/20/2017 7:00 PM 80 77 0.44 0 0.99
4/20/2017 8:00 PM 74 91 0.07 0 0
4/20/2017 9:00 PM 70 94 0 0 0
4/20/2017 10:00 PM 68 96 0 0 0
4/20/2017 11:00 PM 67 95 0 0 0
Data Summary 72 83 16.94 0.00 3.58